createdAt,value
2023-04-12T00:05:56.744Z,6.17
2023-04-12T00:12:03.234Z,6.00
2023-04-12T00:18:05.715Z,6.20
2023-04-12T00:24:09.169Z,5.77
2023-04-12T00:30:12.659Z,5.90
2023-04-12T00:36:15.124Z,5.40
2023-04-12T00:42:17.544Z,5.90
2023-04-12T00:48:19.989Z,5.97
2023-04-12T00:54:31.004Z,7.37
2023-04-12T01:00:37.857Z,6.27
2023-04-12T01:06:51.520Z,6.40
2023-04-12T01:12:56.949Z,6.37
2023-04-12T01:19:15.556Z,6.47
2023-04-12T01:25:40.055Z,7.17
2023-04-12T01:31:54.613Z,6.83
2023-04-12T01:37:59.058Z,6.73
2023-04-12T01:44:01.484Z,7.37
2023-04-12T01:50:16.019Z,7.33
2023-04-12T01:56:21.509Z,7.13
2023-04-12T02:02:25.160Z,7.40
2023-04-12T02:08:39.551Z,6.77
2023-04-12T02:14:41.967Z,7.13
2023-04-12T02:20:44.417Z,6.50
2023-04-12T02:26:47.896Z,6.73
2023-04-12T02:32:57.808Z,7.37
2023-04-12T02:39:00.861Z,7.47
2023-04-12T02:45:07.322Z,6.93
2023-04-12T02:51:09.792Z,7.53
2023-04-12T02:57:19.531Z,7.00
2023-04-12T03:03:38.179Z,6.93
2023-04-12T03:09:47.050Z,7.70
2023-04-12T03:15:51.917Z,6.90
2023-04-12T03:21:54.315Z,7.93
2023-04-12T03:27:56.768Z,7.03
2023-04-12T03:33:59.538Z,10.83
2023-04-12T03:40:07.533Z,8.00
2023-04-12T03:46:12.208Z,8.60
2023-04-12T03:52:14.651Z,8.87
2023-04-12T03:58:17.108Z,10.70
2023-04-12T04:04:19.781Z,8.43
2023-04-12T04:10:23.033Z,8.80
2023-04-12T04:16:25.565Z,7.97
2023-04-12T04:22:30.024Z,8.17
2023-04-12T04:28:38.906Z,8.10
2023-04-12T04:34:41.896Z,9.57
2023-04-12T04:40:45.577Z,8.77
2023-04-12T04:46:50.899Z,7.53
2023-04-12T04:52:53.377Z,8.87
2023-04-12T04:58:57.065Z,8.17
2023-04-12T05:05:00.292Z,8.40
2023-04-12T05:11:03.749Z,7.93
2023-04-12T05:17:06.378Z,7.80
2023-04-12T05:23:08.652Z,8.37
2023-04-12T05:29:11.205Z,7.27
2023-04-12T05:35:21.839Z,6.77
2023-04-12T05:41:24.116Z,6.80
2023-04-12T05:47:26.653Z,7.33
2023-04-12T05:53:37.173Z,6.43
2023-04-12T05:59:39.546Z,7.37
2023-04-12T06:05:42.046Z,7.57
2023-04-12T06:11:45.462Z,7.37
2023-04-12T06:17:48.956Z,7.00
2023-04-12T06:23:51.394Z,7.60
2023-04-12T06:29:53.829Z,6.80
2023-04-12T06:36:00.589Z,7.43
2023-04-12T06:42:05.775Z,7.43
2023-04-12T06:48:08.281Z,7.33
2023-04-12T06:54:11.614Z,7.33
2023-04-12T07:00:16.199Z,7.07
2023-04-12T07:06:25.502Z,6.47
2023-04-12T07:12:28.199Z,6.33
2023-04-12T07:18:31.596Z,6.83
2023-04-12T07:24:34.052Z,7.20
2023-04-12T07:30:36.536Z,7.00
2023-04-12T07:36:39.973Z,7.30
2023-04-12T07:42:46.886Z,7.57
2023-04-12T07:48:52.032Z,7.60
2023-04-12T07:54:56.477Z,7.07
2023-04-12T08:01:01.390Z,7.77
2023-04-12T08:07:07.430Z,6.93
2023-04-12T08:13:09.863Z,7.77
2023-04-12T08:19:12.367Z,7.17
2023-04-12T08:25:26.850Z,8.57
2023-04-12T08:31:33.367Z,8.07
2023-04-12T08:37:36.830Z,8.10
2023-04-12T08:43:47.259Z,8.47
2023-04-12T08:50:01.943Z,7.90
2023-04-12T08:56:11.896Z,8.87
2023-04-12T09:02:17.473Z,8.57
2023-04-12T09:08:23.269Z,9.93
2023-04-12T09:14:31.818Z,9.60
2023-04-12T09:20:39.731Z,8.93
2023-04-12T09:26:44.057Z,10.13
2023-04-12T09:32:47.221Z,9.37
2023-04-12T09:39:05.639Z,9.23
2023-04-12T09:45:51.410Z,8.73
2023-04-12T09:52:10.622Z,10.03
2023-04-12T09:58:32.082Z,8.93
2023-04-12T10:04:37.332Z,9.23
2023-04-12T10:10:45.392Z,9.47
2023-04-12T10:16:52.905Z,8.87
2023-04-12T10:22:55.302Z,9.73
2023-04-12T10:29:33.443Z,9.70
2023-04-12T10:35:57.476Z,9.17
2023-04-12T10:42:25.670Z,8.87
2023-04-12T10:48:42.208Z,8.63
2023-04-12T10:54:48.947Z,9.20
2023-04-12T11:01:00.149Z,9.60
2023-04-12T11:07:19.225Z,9.03
2023-04-12T11:13:38.539Z,8.50
2023-04-12T11:19:54.971Z,9.77
2023-04-12T11:25:59.682Z,12.73
2023-04-12T11:32:17.523Z,10.10
2023-04-12T11:38:24.112Z,10.27
2023-04-12T11:44:28.524Z,10.20
2023-04-12T11:50:42.610Z,10.30
2023-04-12T11:56:46.195Z,9.93
2023-04-12T12:03:09.005Z,10.70
2023-04-12T12:09:14.042Z,11.23
2023-04-12T12:15:19.740Z,11.77
2023-04-12T12:21:29.812Z,11.70
2023-04-12T12:27:59.745Z,12.70
2023-04-12T12:34:09.207Z,13.63
2023-04-12T12:40:19.165Z,15.30
2023-04-12T12:46:23.073Z,12.67
2023-04-12T12:52:28.540Z,13.23
2023-04-12T13:05:21.370Z,12.93
2023-04-12T13:11:24.055Z,12.93
2023-04-12T13:17:26.542Z,14.33
2023-04-12T13:23:30.986Z,13.43
2023-04-12T13:29:38.507Z,13.97
2023-04-12T13:35:59.684Z,12.10
2023-04-12T13:42:04.547Z,12.13
2023-04-12T13:48:07.083Z,12.30
2023-04-12T13:54:09.495Z,10.87
2023-04-12T14:00:22.257Z,10.07
2023-04-12T14:06:51.149Z,10.60
2023-04-12T14:13:02.515Z,10.03
2023-04-12T14:19:18.577Z,9.30
2023-04-12T14:25:22.657Z,8.57
2023-04-12T14:31:35.724Z,9.40
2023-04-12T14:37:48.520Z,9.70
2023-04-12T14:43:51.556Z,9.20
2023-04-12T14:49:55.901Z,8.37
2023-04-12T14:56:09.190Z,9.17
2023-04-12T15:02:12.076Z,9.47
2023-04-12T15:08:14.464Z,9.33
2023-04-12T15:14:21.058Z,10.23
2023-04-12T15:20:28.404Z,9.07
2023-04-12T15:26:42.949Z,10.50
2023-04-12T15:32:48.422Z,10.20
2023-04-12T15:38:50.845Z,10.63
2023-04-12T15:44:57.433Z,11.87
2023-04-12T15:50:59.801Z,11.40
2023-04-12T15:57:10.322Z,10.93
2023-04-12T16:03:21.052Z,10.83
2023-04-12T16:09:38.239Z,10.10
2023-04-12T16:15:40.888Z,11.60
2023-04-12T16:21:51.364Z,11.73
2023-04-12T16:28:02.787Z,12.17
2023-04-12T16:34:09.472Z,11.77
2023-04-12T16:40:19.795Z,11.87
2023-04-12T16:46:26.727Z,12.17
2023-04-12T16:52:38.268Z,14.87
2023-04-12T16:58:40.394Z,15.17
2023-04-12T17:04:53.185Z,15.17
2023-04-12T17:10:55.146Z,14.77
2023-04-12T17:17:19.436Z,15.37
2023-04-12T17:23:23.697Z,15.73
2023-04-12T17:29:28.608Z,16.57
2023-04-12T17:35:32.884Z,19.70
2023-04-12T17:41:37.871Z,21.00
2023-04-12T17:47:48.859Z,19.53
2023-04-12T17:53:53.349Z,18.17
2023-04-12T18:00:15.794Z,18.23
2023-04-12T18:06:21.497Z,18.90
2023-04-12T18:12:30.342Z,18.20
2023-04-12T18:18:32.426Z,16.90
2023-04-12T18:24:41.905Z,18.33
2023-04-12T18:31:02.619Z,17.70
2023-04-12T18:37:08.979Z,17.40
2023-04-12T18:43:11.461Z,16.47
2023-04-12T18:49:27.245Z,16.57
2023-04-12T18:55:51.492Z,16.53
2023-04-12T19:01:53.354Z,15.77
2023-04-12T19:08:03.193Z,17.07
2023-04-12T19:14:11.888Z,16.50
2023-04-12T19:20:17.362Z,17.03
2023-04-12T19:26:19.810Z,17.33
2023-04-12T19:32:23.729Z,18.63
2023-04-12T19:38:36.508Z,16.73
2023-04-12T19:44:40.394Z,16.87
2023-04-12T19:50:50.920Z,18.53
2023-04-12T19:56:56.926Z,17.37
2023-04-12T20:02:59.713Z,15.73
2023-04-12T20:09:02.210Z,17.40
2023-04-12T20:15:08.620Z,15.93
2023-04-12T20:21:11.149Z,14.90
2023-04-12T20:27:20.591Z,16.73
2023-04-12T20:33:24.096Z,15.47
2023-04-12T20:39:26.509Z,14.07
2023-04-12T20:45:29.090Z,15.73
2023-04-12T20:51:34.434Z,15.33
2023-04-12T20:57:43.025Z,15.07
2023-04-12T21:03:54.476Z,15.43
2023-04-12T21:09:59.648Z,15.53
2023-04-12T21:16:17.253Z,15.77
2023-04-12T21:22:26.627Z,14.60
2023-04-12T21:28:34.494Z,14.37
2023-04-12T21:34:47.938Z,15.83
2023-04-12T21:40:50.401Z,12.93
2023-04-12T21:46:52.849Z,13.53
2023-04-12T21:52:56.272Z,12.33
2023-04-12T21:59:00.813Z,13.73
2023-04-12T22:05:06.382Z,13.33
2023-04-12T22:11:10.696Z,13.30
2023-04-12T22:17:23.202Z,13.60
2023-04-12T22:23:24.980Z,12.80
2023-04-12T22:29:31.138Z,12.73
2023-04-12T22:35:35.587Z,11.85
2023-04-12T22:41:44.101Z,11.63
2023-04-12T22:47:46.558Z,11.97
2023-04-12T22:53:51.017Z,11.30
2023-04-12T22:59:54.519Z,11.13
2023-04-12T23:05:56.971Z,11.83
2023-04-12T23:11:59.424Z,10.57
2023-04-12T23:18:12.531Z,12.27
2023-04-12T23:24:20.347Z,11.53
2023-04-12T23:30:25.160Z,10.57
2023-04-12T23:36:31.460Z,12.23
2023-04-12T23:42:45.956Z,12.73
2023-04-12T23:48:48.557Z,11.47
2023-04-12T23:54:52.823Z,11.97
